Time;durP1;ratioP1;P1;durP2;ratioP2;P2;SDS_P1;SDS_P2;PMS_P1;PMS_P2;Temp;Humidity;BMP_temperature;BMP_pressure;BME280_temperature;BME280_humidity;BME280_pressure;Samples;Min_cycle;Max_cycle;Signal;HPM_P1;HPM_P2
2023/06/20 00:00:42;;;;;;;17.05;14.60;;;;;;;26.49;48.32;100979.66;5008851;28;96885;-67
2023/06/20 00:03:09;;;;;;;16.70;14.65;;;;;;;26.30;49.35;100990.59;5007927;27;100070;-68
2023/06/20 00:05:35;;;;;;;16.90;15.10;;;;;;;26.36;49.28;100984.56;5009037;28;99005;-67
2023/06/20 00:08:03;;;;;;;17.73;14.65;;;;;;;26.40;49.52;100979.69;5015757;28;96831;-67
2023/06/20 00:10:29;;;;;;;16.50;14.77;;;;;;;26.26;49.80;100989.16;5014002;28;96900;-67
2023/06/20 00:12:55;;;;;;;17.00;15.20;;;;;;;26.01;50.27;100979.84;5008592;28;99485;-66
2023/06/20 00:15:25;;;;;;;16.70;15.00;;;;;;;26.07;50.20;100981.94;5012097;28;97311;-66
2023/06/20 00:17:52;;;;;;;18.08;16.17;;;;;;;26.08;50.42;100988.22;5013574;28;96918;-68
2023/06/20 00:20:18;;;;;;;18.02;15.25;;;;;;;25.84;51.33;100986.03;5015211;28;98144;-67
2023/06/20 00:22:45;;;;;;;17.00;15.20;;;;;;;25.74;51.64;100979.78;5007269;28;97641;-68
2023/06/20 00:25:13;;;;;;;18.25;15.18;;;;;;;26.13;50.70;100973.22;5014884;28;98202;-67
2023/06/20 00:27:39;;;;;;;16.20;14.32;;;;;;;26.36;49.90;100973.75;5010249;28;98575;-68
2023/06/20 00:30:07;;;;;;;16.17;14.57;;;;;;;26.16;50.42;100977.50;5009716;28;96916;-67
2023/06/20 00:32:33;;;;;;;18.17;14.90;;;;;;;26.12;50.11;100974.22;5013714;28;98876;-68
2023/06/20 00:35:02;;;;;;;17.10;15.13;;;;;;;26.22;49.50;100971.50;5006503;28;98963;-67
2023/06/20 00:37:29;;;;;;;17.65;15.85;;;;;;;26.13;49.24;100966.97;5011203;28;96737;-68
2023/06/20 00:39:55;;;;;;;16.25;13.77;;;;;;;26.23;49.40;100970.50;5016322;28;96909;-69
2023/06/20 00:42:24;;;;;;;21.40;16.08;;;;;;;26.32;48.58;100968.78;5012068;28;101850;-67
2023/06/20 00:44:51;;;;;;;17.50;15.52;;;;;;;26.30;49.38;100963.50;5015919;28;99060;-67
2023/06/20 00:47:18;;;;;;;16.67;15.00;;;;;;;26.34;49.01;100959.47;5015841;27;96833;-67
2023/06/20 00:49:45;;;;;;;16.85;15.05;;;;;;;26.33;49.17;100957.78;5012613;28;97747;-68
2023/06/20 00:52:13;;;;;;;16.65;14.55;;;;;;;26.37;49.33;100961.06;5009878;28;99033;-68
2023/06/20 00:54:39;;;;;;;16.20;14.50;;;;;;;26.42;48.95;100962.31;5016577;28;99214;-67
2023/06/20 00:57:06;;;;;;;20.30;15.13;;;;;;;26.53;48.69;100956.66;5010629;28;96819;-68
2023/06/20 00:59:34;;;;;;;19.20;15.00;;;;;;;26.29;49.09;100952.81;5016689;28;96964;-68
2023/06/20 01:02:03;;;;;;;17.58;14.68;;;;;;;26.17;49.66;100955.69;5008664;28;98999;-67
2023/06/20 01:04:31;;;;;;;18.38;16.02;;;;;;;26.18;49.34;100943.00;5010230;28;98801;-67
2023/06/20 01:07:04;;;;;;;17.33;15.02;;;;;;;26.47;48.78;100934.75;5012186;28;97575;-68
2023/06/20 01:09:38;;;;;;;17.33;14.90;;;;;;;26.59;47.13;100937.09;5014170;28;97149;-67
2023/06/20 01:12:13;;;;;;;18.77;15.32;;;;;;;26.69;47.27;100928.91;5002826;28;99407;-68
2023/06/20 01:14:47;;;;;;;18.15;14.98;;;;;;;26.83;46.41;100925.66;5012317;28;98741;-67
2023/06/20 01:17:20;;;;;;;19.83;16.15;;;;;;;26.57;46.86;100924.72;5007795;28;97918;-68
2023/06/20 01:20:12;;;;;;;16.52;14.73;;;;;;;26.58;47.34;100921.81;5011218;28;97231;-67
2023/06/20 01:22:49;;;;;;;17.15;15.32;;;;;;;26.44;47.82;100922.38;5011417;28;101249;-68
2023/06/20 01:25:24;;;;;;;17.05;14.52;;;;;;;26.16;49.51;100932.31;5006274;28;99045;-67
2023/06/20 01:27:57;;;;;;;17.60;15.50;;;;;;;25.95;50.79;100929.00;5007731;28;96919;-67
2023/06/20 01:30:31;;;;;;;20.92;16.45;;;;;;;25.88;50.96;100932.44;5011294;28;97963;-66
2023/06/20 01:33:03;;;;;;;17.20;15.18;;;;;;;25.94;51.21;100923.72;5009670;28;99614;-67
2023/06/20 01:35:34;;;;;;;17.27;15.00;;;;;;;26.01;50.52;100928.41;5006475;28;99696;-68
2023/06/20 01:38:07;;;;;;;19.65;15.88;;;;;;;25.74;50.87;100928.34;5014406;28;96889;-67
2023/06/20 01:40:35;;;;;;;18.35;15.50;;;;;;;25.71;50.35;100925.97;5015476;28;96763;-68
2023/06/20 01:43:04;;;;;;;17.13;15.25;;;;;;;25.72;50.22;100935.78;5008378;28;98979;-67
2023/06/20 01:45:34;;;;;;;17.63;15.73;;;;;;;25.66;51.18;100931.81;5008065;28;99120;-68
2023/06/20 01:48:04;;;;;;;17.63;15.73;;;;;;;25.58;51.26;100934.41;5015701;28;97847;-67
2023/06/20 01:50:32;;;;;;;17.52;14.52;;;;;;;25.70;50.45;100927.81;5014443;28;96958;-67
2023/06/20 01:53:00;;;;;;;17.23;15.35;;;;;;;25.73;50.14;100926.69;5007064;28;98711;-68
2023/06/20 01:55:29;;;;;;;18.75;15.05;;;;;;;25.70;50.09;100932.38;5012404;28;100755;-68
2023/06/20 01:57:58;;;;;;;15.93;14.32;;;;;;;25.70;50.31;100925.09;5006141;28;97001;-68
2023/06/20 02:00:26;;;;;;;17.77;15.75;;;;;;;25.61;50.47;100925.13;5007321;28;98849;-68
2023/06/20 02:02:56;;;;;;;18.40;15.43;;;;;;;25.84;49.80;100923.78;5008793;28;99054;-67
2023/06/20 02:05:24;;;;;;;17.50;15.43;;;;;;;25.69;50.20;100926.09;5012334;28;99413;-68
2023/06/20 02:07:53;;;;;;;18.45;15.27;;;;;;;25.92;49.67;100921.19;5013538;28;96861;-67
2023/06/20 02:10:21;;;;;;;16.90;15.00;;;;;;;25.94;49.76;100919.16;5011971;28;96885;-68
2023/06/20 02:12:51;;;;;;;17.40;15.60;;;;;;;25.61;50.50;100917.84;5005112;28;97852;-68
2023/06/20 02:15:19;;;;;;;17.88;15.98;;;;;;;25.58;50.94;100920.88;5012844;28;99823;-68
2023/06/20 02:17:46;;;;;;;16.35;14.60;;;;;;;25.68;50.56;100918.97;5004964;27;97371;-69
2023/06/20 02:20:13;;;;;;;18.58;15.15;;;;;;;25.71;50.92;100920.56;5008897;28;99804;-68
2023/06/20 02:22:43;;;;;;;18.13;15.45;;;;;;;25.63;50.76;100924.00;5013872;27;98388;-68
2023/06/20 02:25:15;;;;;;;18.67;16.30;;;;;;;25.60;50.34;100918.84;5007318;28;98492;-68
2023/06/20 02:27:43;;;;;;;17.98;16.15;;;;;;;25.64;50.28;100922.13;5014339;28;96885;-68
2023/06/20 02:30:13;;;;;;;18.55;16.10;;;;;;;25.65;49.84;100927.41;5009914;28;96892;-68
2023/06/20 02:32:42;;;;;;;19.95;15.73;;;;;;;25.25;51.13;100932.16;5006991;28;99034;-67
2023/06/20 02:35:11;;;;;;;20.65;16.80;;;;;;;25.43;51.56;100933.13;5008655;28;101083;-68
2023/06/20 02:37:40;;;;;;;18.95;16.05;;;;;;;25.41;51.31;100932.41;5012569;28;97136;-67
2023/06/20 02:40:09;;;;;;;18.92;15.60;;;;;;;25.43;51.02;100930.41;5006879;28;97752;-68
2023/06/20 02:42:35;;;;;;;17.65;15.82;;;;;;;25.66;50.59;100936.38;5015612;28;98956;-67
2023/06/20 02:45:02;;;;;;;22.05;16.38;;;;;;;25.60;50.32;100932.38;5009354;28;98834;-67
2023/06/20 02:47:43;;;;;;;18.45;15.27;;;;;;;25.49;50.65;100934.38;5012759;28;96917;-67
2023/06/20 02:50:17;;;;;;;19.73;15.93;;;;;;;25.42;51.79;100939.50;5009613;28;96989;-67
2023/06/20 02:52:48;;;;;;;19.33;16.63;;;;;;;25.62;51.36;100943.91;5017467;28;99292;-67
2023/06/20 02:55:22;;;;;;;19.60;15.52;;;;;;;25.46;51.71;100940.94;5013530;28;99181;-67
2023/06/20 02:57:59;;;;;;;18.33;15.45;;;;;;;25.52;51.61;100934.09;5015893;27;96935;-67
2023/06/20 03:00:27;;;;;;;19.58;16.30;;;;;;;25.47;51.83;100939.94;5013475;28;96794;-68
2023/06/20 03:03:00;;;;;;;18.45;16.27;;;;;;;25.57;52.01;100935.41;5012666;28;99290;-68
2023/06/20 03:05:30;;;;;;;21.38;16.73;;;;;;;25.45;52.18;100932.97;5015403;28;99110;-68
2023/06/20 03:07:59;;;;;;;19.38;16.35;;;;;;;25.35;52.49;100938.38;5014082;27;96944;-67
2023/06/20 03:10:26;;;;;;;19.98;16.73;;;;;;;25.38;52.37;100932.69;5019529;28;97718;-68
2023/06/20 03:12:52;;;;;;;19.67;16.15;;;;;;;25.55;51.79;100940.06;5011482;27;100216;-69
2023/06/20 03:15:19;;;;;;;19.35;16.38;;;;;;;25.32;52.35;100934.13;5019674;28;99230;-68
2023/06/20 03:17:45;;;;;;;21.58;16.25;;;;;;;25.30;52.75;100946.09;5006520;27;96922;-68
2023/06/20 03:20:13;;;;;;;19.00;16.60;;;;;;;25.34;52.56;100934.81;5010893;28;96942;-68
2023/06/20 03:22:40;;;;;;;19.70;17.15;;;;;;;25.24;52.91;100942.13;5012783;28;99247;-68
2023/06/20 03:25:07;;;;;;;20.35;16.58;;;;;;;25.48;51.99;100944.34;5011205;28;97581;-68
2023/06/20 03:27:33;;;;;;;18.67;16.67;;;;;;;25.58;51.87;100955.19;5013874;27;96791;-68
2023/06/20 03:30:00;;;;;;;18.73;16.73;;;;;;;25.52;52.08;100964.72;5018985;28;97399;-68
2023/06/20 03:32:27;;;;;;;17.13;15.32;;;;;;;25.69;51.71;100960.44;5016000;28;98994;-68
2023/06/20 03:34:53;;;;;;;20.40;17.23;;;;;;;25.85;51.50;100967.94;5011606;28;97459;-69
2023/06/20 03:37:21;;;;;;;18.83;16.83;;;;;;;25.84;51.49;100966.22;5009854;28;96761;-70
2023/06/20 03:39:47;;;;;;;18.20;16.10;;;;;;;25.75;51.66;100966.09;5016759;28;96925;-67
2023/06/20 03:42:14;;;;;;;18.48;15.32;;;;;;;26.13;50.85;100959.69;5014708;27;98931;-67
2023/06/20 03:44:40;;;;;;;20.65;16.23;;;;;;;26.48;49.59;100966.25;5019029;28;98834;-67
2023/06/20 03:47:07;;;;;;;17.85;15.45;;;;;;;26.48;49.00;100961.69;5003802;28;97578;-67
2023/06/20 03:49:33;;;;;;;18.40;16.50;;;;;;;26.45;49.40;100964.69;5021491;28;97083;-68
2023/06/20 03:52:00;;;;;;;20.13;16.83;;;;;;;26.32;49.77;100958.78;5009710;28;99707;-67
2023/06/20 03:54:28;;;;;;;17.65;15.70;;;;;;;26.42;49.69;100965.00;5014705;28;97990;-67
2023/06/20 03:56:54;;;;;;;18.55;16.55;;;;;;;26.50;49.98;100959.69;5009159;28;97763;-67
2023/06/20 03:59:20;;;;;;;19.92;16.73;;;;;;;26.30;50.37;100963.50;5017908;28;96884;-67
2023/06/20 04:01:47;;;;;;;21.42;16.40;;;;;;;26.30;51.07;100971.63;5007502;28;98969;-68
2023/06/20 04:04:16;;;;;;;22.75;16.85;;;;;;;26.27;51.30;100974.63;5014202;28;100559;-67
2023/06/20 04:06:42;;;;;;;19.60;16.85;;;;;;;26.21;51.90;100977.91;5011945;28;97113;-68
2023/06/20 04:09:08;;;;;;;19.50;16.73;;;;;;;26.12;51.44;100971.53;5014768;28;100749;-67
2023/06/20 04:11:36;;;;;;;19.48;17.00;;;;;;;26.32;51.06;100972.31;5006100;28;98940;-68
2023/06/20 04:14:02;;;;;;;17.23;14.90;;;;;;;26.66;49.95;100980.69;5014729;28;98805;-69
2023/06/20 04:16:29;;;;;;;19.38;15.57;;;;;;;26.92;48.94;100975.41;5008613;28;97776;-67
2023/06/20 04:18:55;;;;;;;19.23;17.23;;;;;;;27.18;47.66;100980.91;5013328;28;96975;-68
2023/06/20 04:21:21;;;;;;;21.67;18.35;;;;;;;27.36;45.89;100979.91;5013058;28;99160;-67
2023/06/20 04:23:48;;;;;;;22.10;16.92;;;;;;;27.38;46.01;100988.72;5011043;28;98858;-68
2023/06/20 04:26:14;;;;;;;24.30;18.65;;;;;;;27.52;44.57;100989.19;5011916;28;97655;-67
2023/06/20 04:28:42;;;;;;;23.75;18.33;;;;;;;27.40;44.49;100988.56;5020076;28;96950;-67
2023/06/20 04:31:09;;;;;;;23.48;17.48;;;;;;;27.59;44.39;100991.13;5007314;28;99005;-67
2023/06/20 04:33:35;;;;;;;21.85;17.85;;;;;;;27.79;43.48;100986.34;5012598;28;98847;-67
2023/06/20 04:36:01;;;;;;;21.75;18.60;;;;;;;27.80;43.38;100987.19;5009639;28;96996;-67
2023/06/20 04:38:28;;;;;;;24.20;18.75;;;;;;;27.50;42.85;100992.06;5013110;28;96988;-68
2023/06/20 04:40:54;;;;;;;23.60;18.70;;;;;;;27.56;42.80;100986.03;5015674;28;99352;-68
2023/06/20 04:43:22;;;;;;;20.85;17.40;;;;;;;27.77;42.97;100983.78;5010938;28;99801;-68
2023/06/20 04:45:50;;;;;;;21.38;17.67;;;;;;;27.64;42.82;100982.50;5011271;28;96885;-67
2023/06/20 04:48:16;;;;;;;20.10;17.30;;;;;;;27.71;42.76;100983.56;5011668;27;96869;-68
2023/06/20 04:50:42;;;;;;;23.02;17.40;;;;;;;27.70;42.89;100981.84;5013676;28;100706;-68
2023/06/20 04:53:09;;;;;;;19.73;17.42;;;;;;;27.79;42.64;100986.34;5009586;27;98848;-68
2023/06/20 04:55:38;;;;;;;23.23;17.65;;;;;;;27.79;42.18;100988.19;5010997;28;96704;-67
2023/06/20 04:58:04;;;;;;;27.40;16.98;;;;;;;27.73;42.44;100993.25;5015122;27;96801;-68
2023/06/20 05:00:31;;;;;;;21.00;17.55;;;;;;;27.73;42.19;100992.41;5009723;28;98977;-67
2023/06/20 05:02:59;;;;;;;23.30;19.33;;;;;;;27.77;42.13;100986.50;5013028;28;99005;-67
2023/06/20 05:05:29;;;;;;;20.70;18.40;;;;;;;27.63;42.34;100989.81;5012807;28;96817;-67
2023/06/20 05:07:56;;;;;;;23.63;18.20;;;;;;;27.70;42.15;100996.28;5011673;28;96946;-69
2023/06/20 05:10:23;;;;;;;20.98;17.70;;;;;;;27.59;42.76;101001.13;5010873;28;99075;-68
2023/06/20 05:12:49;;;;;;;18.98;16.50;;;;;;;27.66;42.83;100994.91;5010873;28;98780;-68
2023/06/20 05:15:16;;;;;;;18.92;16.38;;;;;;;27.65;42.95;101001.34;5010276;28;96871;-67
2023/06/20 05:17:42;;;;;;;20.52;17.27;;;;;;;27.62;42.67;101000.81;5007243;28;97287;-68
2023/06/20 05:20:11;;;;;;;27.02;18.58;;;;;;;27.14;43.96;100996.66;5008481;28;99010;-68
2023/06/20 05:22:37;;;;;;;20.33;17.02;;;;;;;27.50;43.20;100999.34;5002852;28;98847;-68
2023/06/20 05:25:04;;;;;;;24.65;18.98;;;;;;;27.62;43.07;101012.53;5004210;28;98558;-68
2023/06/20 05:27:31;;;;;;;23.48;18.75;;;;;;;27.68;43.05;101005.63;5009333;28;96842;-68
2023/06/20 05:29:57;;;;;;;21.17;17.65;;;;;;;27.74;42.86;101005.84;5014721;28;99137;-68
2023/06/20 05:32:23;;;;;;;22.67;17.52;;;;;;;27.85;42.74;101009.28;5005058;28;99026;-67
2023/06/20 05:34:51;;;;;;;21.67;19.15;;;;;;;27.96;42.54;101007.16;5004972;28;96902;-70
2023/06/20 05:37:19;;;;;;;21.98;18.20;;;;;;;27.90;42.73;101010.50;5008837;28;97139;-70
2023/06/20 05:39:46;;;;;;;24.30;17.42;;;;;;;27.99;42.46;101014.13;5007025;28;101694;-67
2023/06/20 05:42:13;;;;;;;26.05;18.30;;;;;;;28.08;42.61;101013.19;5004057;28;99337;-67
2023/06/20 05:44:39;;;;;;;22.65;17.55;;;;;;;28.01;42.83;101007.53;5014901;28;96835;-68
2023/06/20 05:47:06;;;;;;;25.73;17.60;;;;;;;28.13;42.43;101017.13;5010217;28;98109;-69
2023/06/20 05:49:33;;;;;;;21.17;17.27;;;;;;;28.14;42.32;101013.41;5013697;28;100336;-67
2023/06/20 05:51:59;;;;;;;26.05;19.05;;;;;;;28.23;42.13;101013.44;5007653;28;97791;-69
2023/06/20 05:54:27;;;;;;;25.35;19.35;;;;;;;28.16;42.48;101010.53;5006204;27;97904;-68
2023/06/20 05:56:55;;;;;;;28.33;19.58;;;;;;;28.17;41.89;101016.81;5009695;28;97018;-68
2023/06/20 05:59:21;;;;;;;24.27;18.42;;;;;;;28.44;41.87;101014.75;5016038;28;99051;-63
2023/06/20 06:01:48;;;;;;;29.75;19.23;;;;;;;28.68;41.44;101016.72;5016044;28;98768;-62
2023/06/20 06:04:14;;;;;;;28.92;19.35;;;;;;;29.06;40.72;101018.03;5015557;28;96775;-62
2023/06/20 06:06:41;;;;;;;29.42;18.75;;;;;;;29.06;40.34;101020.75;5015627;28;96854;-63
2023/06/20 06:09:07;;;;;;;24.88;19.60;;;;;;;29.27;39.57;101023.84;5015758;28;99023;-62
2023/06/20 06:11:36;;;;;;;28.50;17.95;;;;;;;29.60;39.38;101018.44;5017784;28;99441;-62
2023/06/20 06:14:08;;;;;;;26.55;18.48;;;;;;;29.59;38.82;101017.59;5020920;28;96752;-65
2023/06/20 06:16:37;;;;;;;30.05;19.65;;;;;;;29.87;38.01;101018.06;5020091;28;97275;-63
2023/06/20 06:19:04;;;;;;;21.15;18.88;;;;;;;29.56;38.71;101017.06;5019101;28;98920;-61
2023/06/20 06:21:30;;;;;;;25.75;20.25;;;;;;;30.11;38.20;101028.09;5016076;28;99002;-63
2023/06/20 06:23:57;;;;;;;34.45;19.38;;;;;;;30.52;37.06;101028.00;5016464;28;96712;-61
2023/06/20 06:26:24;;;;;;;21.83;19.38;;;;;;;30.43;36.98;101022.53;5014786;28;97128;-63
2023/06/20 06:28:53;;;;;;;22.70;19.02;;;;;;;30.20;37.02;101024.31;5017188;27;97786;-63
2023/06/20 06:31:26;;;;;;;22.70;20.30;;;;;;;30.52;36.29;101028.84;5018368;28;101251;-61
2023/06/20 06:33:56;;;;;;;27.05;19.55;;;;;;;30.26;37.14;101022.78;5015858;28;96802;-63
2023/06/20 06:36:22;;;;;;;22.10;19.60;;;;;;;30.52;36.46;101017.94;5018680;28;97087;-63
2023/06/20 06:38:50;;;;;;;24.05;20.77;;;;;;;30.60;36.53;101012.44;5018450;27;99631;-62
2023/06/20 06:41:17;;;;;;;24.17;18.73;;;;;;;30.94;36.23;101013.97;5018466;28;98905;-62
2023/06/20 06:43:44;;;;;;;20.40;18.38;;;;;;;31.16;35.59;101008.56;5016565;28;96942;-62
2023/06/20 06:46:12;;;;;;;26.95;20.15;;;;;;;31.42;35.09;101012.78;5021358;27;97359;-62
2023/06/20 06:48:40;;;;;;;20.40;18.25;;;;;;;31.28;35.05;101012.56;5021279;28;98851;-64
2023/06/20 06:51:09;;;;;;;21.52;19.33;;;;;;;30.89;35.58;101017.22;5025335;28;100218;-65
2023/06/20 06:53:35;;;;;;;23.73;19.55;;;;;;;30.91;35.52;101019.78;5021096;27;96963;-62
2023/06/20 06:56:02;;;;;;;25.67;18.98;;;;;;;31.09;35.38;101029.41;5019183;28;96906;-61
2023/06/20 06:58:28;;;;;;;24.38;19.60;;;;;;;31.44;34.94;101018.94;5021162;28;98205;-63
2023/06/20 07:00:55;;;;;;;27.40;19.33;;;;;;;31.54;34.80;101025.84;5021580;28;99077;-63
2023/06/20 07:03:24;;;;;;;23.63;18.92;;;;;;;31.42;35.25;101023.72;5019925;27;96796;-62
2023/06/20 07:05:50;;;;;;;25.35;19.23;;;;;;;31.95;34.62;101023.59;5018856;28;96652;-63
2023/06/20 07:08:17;;;;;;;26.55;20.98;;;;;;;31.69;34.86;101017.72;5015698;28;98948;-62
2023/06/20 07:10:43;;;;;;;27.23;20.63;;;;;;;31.50;34.84;101020.94;5017448;28;100536;-62
2023/06/20 07:13:10;;;;;;;24.65;20.90;;;;;;;31.46;35.36;101016.84;5016681;28;96779;-62
2023/06/20 07:15:36;;;;;;;23.95;21.08;;;;;;;31.20;35.59;100998.97;5019049;27;96816;-62
2023/06/20 07:18:03;;;;;;;22.52;20.13;;;;;;;31.18;35.91;101014.66;5015169;28;99031;-62
2023/06/20 07:20:31;;;;;;;27.80;21.35;;;;;;;30.88;36.03;101015.53;5016616;28;98905;-62
2023/06/20 07:22:58;;;;;;;28.77;21.13;;;;;;;31.01;36.22;101001.28;5018714;28;96822;-63
2023/06/20 07:25:24;;;;;;;27.17;20.50;;;;;;;30.88;36.72;101000.00;5021203;28;96957;-62
2023/06/20 07:27:51;;;;;;;26.58;20.25;;;;;;;31.00;36.74;100996.84;5014710;28;98109;-62
2023/06/20 07:30:18;;;;;;;22.10;19.77;;;;;;;31.13;36.72;100998.00;5013786;28;99396;-62
2023/06/20 07:32:44;;;;;;;24.52;20.08;;;;;;;31.17;36.72;101004.81;5018449;28;97524;-62
2023/06/20 07:35:11;;;;;;;23.50;21.00;;;;;;;31.47;36.35;101004.91;5021343;28;97003;-62
2023/06/20 07:37:40;;;;;;;29.77;20.25;;;;;;;31.31;36.39;101011.31;5015191;28;98897;-62
2023/06/20 07:40:08;;;;;;;27.77;21.15;;;;;;;31.28;36.62;101020.75;5020656;28;97938;-62
2023/06/20 07:42:47;;;;;;;28.92;20.60;;;;;;;31.16;36.29;101022.22;5015392;28;96771;-63
2023/06/20 07:45:13;;;;;;;23.50;20.10;;;;;;;31.06;36.66;101027.03;5015497;28;96836;-63
2023/06/20 07:47:40;;;;;;;22.65;19.83;;;;;;;30.99;37.39;101044.28;5015697;28;100677;-63
2023/06/20 07:50:07;;;;;;;26.88;19.60;;;;;;;30.99;36.99;101039.66;5015033;28;98778;-62
2023/06/20 07:52:34;;;;;;;22.15;19.75;;;;;;;31.08;37.05;101030.44;5016579;28;97101;-63
2023/06/20 07:55:03;;;;;;;26.88;20.58;;;;;;;31.47;36.59;101021.28;5016272;28;96844;-63
2023/06/20 07:57:30;;;;;;;25.77;20.50;;;;;;;31.56;35.72;101012.00;5014915;28;99622;-63
2023/06/20 07:59:56;;;;;;;26.05;21.08;;;;;;;31.62;35.76;101016.75;5017609;28;98909;-63
2023/06/20 08:02:23;;;;;;;23.10;20.30;;;;;;;31.83;35.36;101016.03;5007597;28;97058;-62
2023/06/20 08:04:49;;;;;;;25.95;21.35;;;;;;;31.91;35.42;101019.53;5008287;28;97048;-62
2023/06/20 08:07:16;;;;;;;24.48;19.65;;;;;;;31.88;35.56;101019.91;5007843;28;97957;-63
2023/06/20 08:09:43;;;;;;;25.92;20.42;;;;;;;32.13;35.73;101016.91;5009992;28;99205;-63
2023/06/20 08:12:11;;;;;;;26.08;21.23;;;;;;;32.08;35.05;101020.22;5012670;28;97100;-64
2023/06/20 08:14:38;;;;;;;25.33;19.80;;;;;;;32.08;35.14;101013.91;5014681;28;96863;-63
2023/06/20 08:17:05;;;;;;;25.00;20.60;;;;;;;32.06;35.54;101017.66;5011684;28;98829;-64
2023/06/20 08:19:31;;;;;;;30.05;20.20;;;;;;;31.87;36.22;101022.81;5008512;28;100763;-62
2023/06/20 08:21:57;;;;;;;29.98;21.30;;;;;;;31.69;35.97;101017.72;5014204;28;97546;-63
2023/06/20 08:24:24;;;;;;;28.42;20.65;;;;;;;31.43;36.27;101022.69;5011815;27;97165;-62
2023/06/20 08:26:50;;;;;;;28.30;19.98;;;;;;;31.62;35.70;101023.06;5012894;28;99286;-63
2023/06/20 08:29:18;;;;;;;87.25;22.77;;;;;;;31.69;36.04;101025.06;5011373;28;99361;-63
2023/06/20 08:31:46;;;;;;;42.00;20.45;;;;;;;31.54;36.21;101023.09;5013294;28;96883;-64
2023/06/20 08:34:12;;;;;;;36.03;20.17;;;;;;;31.47;37.16;101026.75;5011780;28;97168;-62
2023/06/20 08:36:39;;;;;;;63.30;22.02;;;;;;;30.99;38.51;101031.47;5013327;28;99398;-63
2023/06/20 08:39:05;;;;;;;51.30;21.48;;;;;;;31.27;38.56;101031.84;5012026;28;99135;-62
2023/06/20 08:41:32;;;;;;;34.00;19.60;;;;;;;31.17;39.30;101036.72;5012315;28;96771;-62
2023/06/20 08:43:58;;;;;;;27.45;19.40;;;;;;;31.18;39.60;101035.66;5012881;28;96828;-60
2023/06/20 08:46:26;;;;;;;35.15;20.30;;;;;;;31.19;39.56;101032.75;5012720;28;100605;-63
2023/06/20 08:48:53;;;;;;;36.30;18.80;;;;;;;31.26;39.57;101036.44;5009164;28;99480;-64
2023/06/20 08:51:22;;;;;;;26.88;18.83;;;;;;;31.17;38.83;101042.16;5011705;28;96856;-62
2023/06/20 08:53:50;;;;;;;24.55;18.65;;;;;;;31.13;39.04;101047.13;5012962;28;97126;-63
2023/06/20 08:56:19;;;;;;;25.33;18.65;;;;;;;30.96;38.98;101050.97;5012172;28;98987;-62
2023/06/20 08:58:45;;;;;;;22.38;17.55;;;;;;;31.09;39.33;101064.03;5009230;28;99241;-62
2023/06/20 09:01:12;;;;;;;22.45;18.65;;;;;;;30.83;39.44;101073.38;5010291;28;96705;-62
2023/06/20 09:03:40;;;;;;;21.63;19.20;;;;;;;30.52;39.80;101079.81;5010649;28;98770;-62
2023/06/20 09:06:07;;;;;;;25.83;18.45;;;;;;;30.65;39.91;101083.69;5006347;28;98908;-62
2023/06/20 09:08:37;;;;;;;26.60;20.08;;;;;;;30.41;39.89;101092.75;5010623;28;98106;-62
2023/06/20 09:11:08;;;;;;;24.52;19.95;;;;;;;30.29;40.29;101096.00;5007463;28;97143;-63
2023/06/20 09:13:34;;;;;;;28.33;19.13;;;;;;;30.43;40.22;101104.34;5007441;28;96932;-62
2023/06/20 09:16:08;;;;;;;24.30;19.80;;;;;;;29.89;41.48;101115.94;5006589;28;99525;-62
2023/06/20 09:18:35;;;;;;;23.88;19.95;;;;;;;29.43;42.40;101117.44;5009712;28;98744;-63
2023/06/20 09:21:02;;;;;;;101.32;21.42;;;;;;;28.88;43.68;101148.69;5008791;28;96811;-61
2023/06/20 09:23:29;;;;;;;21.27;18.50;;;;;;;28.44;44.67;101153.34;5012073;28;97483;-62
2023/06/20 09:25:56;;;;;;;20.65;17.95;;;;;;;28.00;45.83;101147.06;5009664;28;99429;-62
2023/06/20 09:28:23;;;;;;;22.45;17.88;;;;;;;27.60;47.67;101166.56;5011882;28;99902;-65
2023/06/20 09:30:50;;;;;;;26.60;18.65;;;;;;;28.11;46.73;101157.69;5011379;28;97186;-63
2023/06/20 09:33:17;;;;;;;22.45;18.70;;;;;;;28.32;46.89;101165.50;5012508;28;97040;-62
2023/06/20 09:35:43;;;;;;;22.70;19.98;;;;;;;28.01;47.91;101175.09;5010775;28;98318;-62
2023/06/20 09:38:11;;;;;;;21.05;18.67;;;;;;;27.90;48.57;101176.16;5008455;28;98840;-61
2023/06/20 09:40:43;;;;;;;22.48;20.08;;;;;;;27.64;49.88;101184.22;5005286;28;97144;-62
2023/06/20 09:43:09;;;;;;;21.52;19.27;;;;;;;27.59;50.68;101199.28;5009999;28;96889;-63
2023/06/20 09:45:36;;;;;;;23.38;20.30;;;;;;;27.41;50.61;101203.78;5009603;28;99059;-62
2023/06/20 09:48:04;;;;;;;27.45;21.15;;;;;;;27.38;51.71;101211.22;5011212;28;99459;-62
2023/06/20 09:50:32;;;;;;;25.75;19.80;;;;;;;27.16;52.86;101208.94;5007403;28;97514;-63
2023/06/20 09:53:03;;;;;;;24.00;20.77;;;;;;;27.04;53.70;101204.72;5009429;28;97018;-62
2023/06/20 09:55:34;;;;;;;25.02;21.15;;;;;;;27.11;54.60;101199.53;5007952;28;99643;-63
2023/06/20 09:58:03;;;;;;;24.33;21.58;;;;;;;26.82;55.71;101186.06;5008631;28;99302;-64
2023/06/20 10:00:31;;;;;;;23.98;21.38;;;;;;;27.05;54.97;101178.41;5005653;28;96828;-61
2023/06/20 10:03:00;;;;;;;29.02;21.38;;;;;;;27.22;55.00;101186.63;5005232;28;96964;-63
2023/06/20 10:05:28;;;;;;;24.02;21.05;;;;;;;27.06;56.37;101185.56;4999799;28;98123;-61
2023/06/20 10:07:57;;;;;;;26.27;21.65;;;;;;;27.19;56.07;101189.63;4995891;28;99040;-63
2023/06/20 10:10:24;;;;;;;26.67;21.40;;;;;;;27.24;56.49;101179.16;4998096;28;98015;-62
2023/06/20 10:12:53;;;;;;;24.70;22.02;;;;;;;27.43;56.60;101175.50;4998540;28;97326;-62
2023/06/20 10:15:21;;;;;;;26.17;21.80;;;;;;;27.32;57.10;101173.00;4998754;27;98124;-62
2023/06/20 10:17:48;;;;;;;34.40;24.35;;;;;;;27.32;57.75;101173.84;4998950;28;98983;-63
2023/06/20 10:20:28;;;;;;;31.17;24.15;;;;;;;27.43;58.06;101171.94;4999099;28;96843;-61
2023/06/20 10:22:58;;;;;;;33.22;24.67;;;;;;;27.42;58.03;101167.50;4999009;28;98808;-61
2023/06/20 10:25:27;;;;;;;28.42;23.40;;;;;;;27.27;58.32;101175.31;4999915;28;98989;-63
2023/06/20 10:27:59;;;;;;;32.20;24.05;;;;;;;27.28;58.98;101172.44;4998036;28;99772;-61
2023/06/20 10:31:00;;;;;;;32.03;25.02;;;;;;;27.24;59.81;101173.75;4995189;28;98882;-61
2023/06/20 10:33:30;;;;;;;28.33;23.67;;;;;;;27.38;59.27;101166.94;5000339;28;98603;-61
2023/06/20 10:35:59;;;;;;;32.85;23.02;;;;;;;26.99;59.35;101169.03;4999164;28;99043;-62
2023/06/20 10:38:25;;;;;;;33.22;23.25;;;;;;;27.11;59.32;101173.25;4997785;28;98808;-62
2023/06/20 10:41:12;;;;;;;34.28;24.70;;;;;;;27.04;60.64;101164.03;4998864;28;97193;-61
2023/06/20 10:43:51;;;;;;;30.90;22.63;;;;;;;27.13;60.55;101159.53;4997416;28;98552;-61
2023/06/20 10:46:18;;;;;;;26.65;22.20;;;;;;;27.16;59.55;101142.97;4998679;28;99522;-61
2023/06/20 10:48:45;;;;;;;27.83;22.17;;;;;;;27.20;59.47;101141.66;4995537;28;99120;-61
2023/06/20 10:51:12;;;;;;;25.95;22.13;;;;;;;27.38;59.11;101140.66;4999567;28;96911;-62
2023/06/20 10:53:38;;;;;;;30.50;24.48;;;;;;;27.27;59.39;101140.03;4999689;28;98707;-62
2023/06/20 10:56:05;;;;;;;26.23;22.45;;;;;;;27.52;59.29;101136.59;4998822;28;99570;-62
2023/06/20 10:58:31;;;;;;;27.95;21.80;;;;;;;27.63;58.16;101127.41;5001824;28;99350;-61
2023/06/20 11:00:59;;;;;;;29.38;22.73;;;;;;;27.58;59.04;101132.41;5005767;28;98422;-61
2023/06/20 11:03:25;;;;;;;29.77;22.75;;;;;;;27.51;60.20;101136.72;5000703;28;97278;-62
2023/06/20 11:05:54;;;;;;;27.23;22.60;;;;;;;27.56;60.76;101131.75;5002628;28;98978;-61
2023/06/20 11:08:29;;;;;;;26.33;21.42;;;;;;;27.64;59.88;101129.09;5002354;28;99178;-62
2023/06/20 11:10:57;;;;;;;30.45;23.30;;;;;;;27.93;58.65;101121.53;5002440;28;98509;-61
2023/06/20 11:13:24;;;;;;;28.40;23.13;;;;;;;27.88;58.69;101121.16;5003262;28;98727;-62